Time;durP1;ratioP1;P1;durP2;ratioP2;P2;SDS_P1;SDS_P2;PMS_P1;PMS_P2;Temp;Humidity;BMP_temperature;BMP_pressure;BME280_temperature;BME280_humidity;BME280_pressure;Samples;Min_cycle;Max_cycle;Signal;HPM_P1;HPM_P2
2023/10/25 00:02:15;;;;;;;15.83;9.90;;;9.00;99.90;;;;;;5072103;28;20383;-71
2023/10/25 00:04:41;;;;;;;14.20;9.53;;;9.00;99.90;;;;;;5073817;28;20453;-72
2023/10/25 00:07:07;;;;;;;20.58;10.40;;;9.00;99.90;;;;;;5074639;28;20886;-73
2023/10/25 00:09:33;;;;;;;16.48;10.15;;;9.00;99.90;;;;;;5076072;28;20399;-74
2023/10/25 00:11:59;;;;;;;18.33;9.43;;;9.00;99.90;;;;;;5076380;28;20880;-73
2023/10/25 00:14:24;;;;;;;20.77;9.80;;;8.90;99.90;;;;;;5074714;28;20426;-73
2023/10/25 00:16:50;;;;;;;14.30;10.15;;;8.90;99.90;;;;;;5073407;28;20395;-73
2023/10/25 00:19:16;;;;;;;17.17;10.90;;;8.80;99.90;;;;;;5074543;28;20916;-73
2023/10/25 00:21:41;;;;;;;17.40;10.77;;;8.80;99.90;;;;;;5073874;28;20384;-73
2023/10/25 00:24:07;;;;;;;14.63;9.90;;;8.80;99.90;;;;;;5073710;28;20451;-73
2023/10/25 00:26:33;;;;;;;19.42;10.98;;;8.80;99.90;;;;;;5075136;28;20380;-73
2023/10/25 00:28:58;;;;;;;18.90;10.80;;;8.80;99.90;;;;;;5074828;28;20470;-73
2023/10/25 00:31:25;;;;;;;17.63;9.50;;;8.90;99.90;;;;;;5074535;28;20387;-73
2023/10/25 00:33:51;;;;;;;23.40;10.52;;;8.90;99.90;;;;;;5073083;28;20395;-73
2023/10/25 00:36:16;;;;;;;20.52;9.50;;;8.90;99.90;;;;;;5076733;28;20410;-71
2023/10/25 00:38:42;;;;;;;20.45;10.20;;;8.90;99.90;;;;;;5078673;28;20498;-73
2023/10/25 00:41:08;;;;;;;16.77;10.45;;;8.90;99.90;;;;;;5075489;28;20398;-72
2023/10/25 00:43:34;;;;;;;14.93;9.30;;;8.80;99.90;;;;;;5074449;28;20388;-73
2023/10/25 00:46:13;;;;;;;16.30;10.70;;;8.80;99.90;;;;;;5073780;28;20593;-73
2023/10/25 00:48:42;;;;;;;15.98;9.50;;;8.80;99.90;;;;;;5072804;28;20384;-71
2023/10/25 00:51:09;;;;;;;17.45;9.57;;;8.80;99.90;;;;;;5072584;28;20437;-71
2023/10/25 00:53:46;;;;;;;20.10;10.60;;;8.70;99.90;;;;;;5073728;28;20383;-71
2023/10/25 00:56:14;;;;;;;15.73;9.77;;;8.70;99.90;;;;;;5072069;28;20721;-71
2023/10/25 00:58:43;;;;;;;13.18;9.70;;;8.80;99.90;;;;;;5071548;28;20432;-72
2023/10/25 01:01:10;;;;;;;14.90;9.70;;;8.80;99.90;;;;;;5071078;28;20872;-71
2023/10/25 01:03:35;;;;;;;14.45;9.85;;;8.80;99.90;;;;;;5071972;28;20487;-72
2023/10/25 01:06:04;;;;;;;18.97;9.70;;;8.80;99.90;;;;;;5072524;28;20479;-72
2023/10/25 01:08:30;;;;;;;18.23;10.15;;;8.80;99.90;;;;;;5072207;28;20392;-73
2023/10/25 01:10:56;;;;;;;15.83;9.67;;;8.70;99.90;;;;;;5072914;28;20474;-73
2023/10/25 01:13:22;;;;;;;16.80;10.00;;;8.70;99.90;;;;;;5071163;28;20419;-72
2023/10/25 01:15:48;;;;;;;13.63;9.30;;;8.70;99.90;;;;;;5070858;28;20384;-70
2023/10/25 01:18:14;;;;;;;14.40;9.50;;;8.70;99.90;;;;;;5071159;28;20917;-73
2023/10/25 01:20:40;;;;;;;18.33;9.88;;;8.70;99.90;;;;;;5069590;28;20403;-72
2023/10/25 01:23:06;;;;;;;16.83;9.70;;;8.70;99.90;;;;;;5070933;28;20380;-72
2023/10/25 01:25:31;;;;;;;17.23;9.23;;;8.70;99.90;;;;;;5070660;28;20371;-72
2023/10/25 01:27:58;;;;;;;15.60;9.27;;;8.70;99.90;;;;;;5070922;28;20730;-72
2023/10/25 01:30:24;;;;;;;15.05;8.93;;;8.70;99.90;;;;;;5071527;28;20398;-73
2023/10/25 01:32:50;;;;;;;15.88;8.52;;;8.70;99.90;;;;;;5072278;28;20403;-73
2023/10/25 01:35:15;;;;;;;16.88;8.88;;;8.80;99.90;;;;;;5069888;28;20449;-72
2023/10/25 01:37:41;;;;;;;17.75;8.50;;;8.70;99.90;;;;;;5071279;28;20387;-72
2023/10/25 01:40:07;;;;;;;11.35;8.15;;;8.70;99.90;;;;;;5074092;28;20384;-72
2023/10/25 01:42:32;;;;;;;14.25;9.32;;;8.70;99.90;;;;;;5077415;28;20388;-72
2023/10/25 01:45:00;;;;;;;14.30;9.50;;;8.70;99.90;;;;;;5078129;28;20465;-72
2023/10/25 01:47:26;;;;;;;16.63;8.80;;;8.70;99.90;;;;;;5070947;28;20429;-73
2023/10/25 01:49:51;;;;;;;16.83;8.60;;;8.70;99.90;;;;;;5071503;28;20387;-72
2023/10/25 01:52:17;;;;;;;12.60;8.10;;;8.70;99.90;;;;;;5070800;28;20842;-72
2023/10/25 01:54:45;;;;;;;14.30;8.03;;;8.70;99.90;;;;;;5069324;28;20387;-71
2023/10/25 01:57:10;;;;;;;16.92;8.10;;;8.70;99.90;;;;;;5070981;28;20388;-72
2023/10/25 01:59:36;;;;;;;13.40;8.50;;;8.70;99.90;;;;;;5071830;28;20740;-72
2023/10/25 02:02:01;;;;;;;11.97;7.73;;;8.70;99.90;;;;;;5071619;28;20386;-71
2023/10/25 02:04:27;;;;;;;17.80;7.90;;;8.70;99.90;;;;;;5070638;28;20448;-72
2023/10/25 02:06:53;;;;;;;13.87;7.53;;;8.70;99.90;;;;;;5070795;28;20411;-71
2023/10/25 02:09:19;;;;;;;10.38;7.60;;;8.80;99.90;;;;;;5070518;28;20462;-72
2023/10/25 02:11:45;;;;;;;14.13;7.88;;;8.70;99.90;;;;;;5070221;28;20808;-72
2023/10/25 02:14:11;;;;;;;12.25;8.20;;;8.60;99.90;;;;;;5070290;28;20923;-70
2023/10/25 02:16:36;;;;;;;19.83;10.50;;;8.60;99.90;;;;;;5070248;28;20446;-71
2023/10/25 02:19:02;;;;;;;13.53;7.70;;;8.60;99.90;;;;;;5070251;28;20408;-72
2023/10/25 02:21:28;;;;;;;14.45;7.82;;;8.60;99.90;;;;;;5070309;28;20375;-72
2023/10/25 02:23:54;;;;;;;13.20;8.77;;;8.60;99.90;;;;;;5070077;28;20387;-72
2023/10/25 02:26:19;;;;;;;11.85;7.90;;;8.60;99.90;;;;;;5070183;28;20395;-71
2023/10/25 02:28:45;;;;;;;14.70;7.50;;;8.60;99.90;;;;;;5070130;28;20387;-72
2023/10/25 02:31:10;;;;;;;11.90;7.10;;;8.60;99.90;;;;;;5070154;28;20415;-72
2023/10/25 02:33:36;;;;;;;11.73;7.60;;;8.50;99.90;;;;;;5070068;28;20473;-71
2023/10/25 02:36:02;;;;;;;16.15;7.68;;;8.50;99.90;;;;;;5070307;28;20478;-71
2023/10/25 02:38:27;;;;;;;18.48;7.80;;;8.50;99.90;;;;;;5070872;28;20399;-72
2023/10/25 02:40:53;;;;;;;15.45;7.80;;;8.50;99.90;;;;;;5073706;28;20467;-72
2023/10/25 02:43:19;;;;;;;10.93;7.75;;;8.60;99.90;;;;;;5073667;28;20368;-72
2023/10/25 02:45:44;;;;;;;15.63;7.45;;;8.50;99.90;;;;;;5074030;28;20376;-71
2023/10/25 02:48:13;;;;;;;14.13;7.40;;;8.50;99.90;;;;;;5073882;28;20394;-72
2023/10/25 02:50:39;;;;;;;15.67;7.90;;;8.50;99.90;;;;;;5072172;28;20388;-71
2023/10/25 02:53:05;;;;;;;13.88;7.28;;;8.50;99.90;;;;;;5073699;28;20394;-71
2023/10/25 02:55:31;;;;;;;12.20;7.57;;;8.50;99.90;;;;;;5072417;28;20742;-70
2023/10/25 02:57:57;;;;;;;13.60;7.57;;;8.50;99.90;;;;;;5073459;28;20933;-72
2023/10/25 03:00:23;;;;;;;19.60;7.30;;;8.40;99.90;;;;;;5073974;28;20483;-71
2023/10/25 03:02:49;;;;;;;12.77;6.83;;;8.40;99.90;;;;;;5073626;28;20720;-71
2023/10/25 03:05:14;;;;;;;15.73;6.80;;;8.50;99.90;;;;;;5073679;28;20383;-71
2023/10/25 03:07:40;;;;;;;16.07;6.90;;;8.60;99.90;;;;;;5073538;28;20379;-72
2023/10/25 03:10:06;;;;;;;13.90;7.10;;;8.60;99.90;;;;;;5073377;28;20730;-71
2023/10/25 03:12:32;;;;;;;10.48;6.60;;;8.50;99.90;;;;;;5073077;28;20379;-71
2023/10/25 03:14:58;;;;;;;10.10;6.00;;;8.60;99.90;;;;;;5072789;28;20383;-71
2023/10/25 03:17:24;;;;;;;9.10;6.30;;;8.50;99.90;;;;;;5073370;28;20383;-71
2023/10/25 03:19:49;;;;;;;13.05;5.85;;;8.60;99.90;;;;;;5072806;28;20399;-71
2023/10/25 03:22:15;;;;;;;10.75;5.30;;;8.60;99.90;;;;;;5072891;28;20933;-70
2023/10/25 03:24:40;;;;;;;19.60;6.00;;;8.60;99.90;;;;;;5072845;28;20819;-71
2023/10/25 03:27:07;;;;;;;8.10;5.33;;;8.70;99.90;;;;;;5072955;28;20383;-70
2023/10/25 03:29:36;;;;;;;9.10;5.50;;;8.70;99.90;;;;;;5072704;28;20800;-70
2023/10/25 03:32:02;;;;;;;11.88;5.18;;;8.70;99.90;;;;;;5072860;28;20818;-72
2023/10/25 03:34:28;;;;;;;9.95;5.90;;;8.60;99.90;;;;;;5072448;28;20490;-72
2023/10/25 03:36:53;;;;;;;9.73;4.70;;;8.60;99.90;;;;;;5072896;28;20423;-72
2023/10/25 03:39:19;;;;;;;9.40;5.13;;;8.60;99.90;;;;;;5072771;28;20503;-71
2023/10/25 03:41:44;;;;;;;9.20;5.00;;;8.60;99.90;;;;;;5072493;28;20443;-72
2023/10/25 03:44:10;;;;;;;10.52;5.10;;;8.60;99.90;;;;;;5072575;28;20382;-72
2023/10/25 03:46:36;;;;;;;13.23;4.70;;;8.60;99.90;;;;;;5072360;28;20886;-71
2023/10/25 03:49:02;;;;;;;12.35;4.90;;;8.70;99.90;;;;;;5072524;28;20849;-71
2023/10/25 03:51:27;;;;;;;10.33;4.87;;;8.60;99.90;;;;;;5071490;28;20475;-71
2023/10/25 03:53:53;;;;;;;8.03;5.50;;;8.60;99.90;;;;;;5071145;28;20394;-71
2023/10/25 03:56:19;;;;;;;12.37;5.37;;;8.60;99.90;;;;;;5073853;28;20749;-72
2023/10/25 03:58:44;;;;;;;10.03;4.63;;;8.60;99.90;;;;;;5073818;28;20407;-72
2023/10/25 04:01:10;;;;;;;12.53;5.40;;;8.60;99.90;;;;;;5074838;28;20387;-72
2023/10/25 04:03:35;;;;;;;13.47;5.30;;;8.60;99.90;;;;;;5074949;28;20393;-73
2023/10/25 04:06:04;;;;;;;9.97;4.80;;;8.60;99.90;;;;;;5074723;28;20574;-72
2023/10/25 04:08:29;;;;;;;12.05;5.40;;;8.70;99.90;;;;;;5072417;28;20406;-70
2023/10/25 04:10:57;;;;;;;9.13;5.30;;;8.70;99.90;;;;;;5072063;28;20380;-72
2023/10/25 04:13:23;;;;;;;14.43;5.75;;;8.80;99.90;;;;;;5071854;28;20912;-72
2023/10/25 04:15:59;;;;;;;11.85;5.63;;;8.80;99.90;;;;;;5071979;28;20388;-71
2023/10/25 04:18:29;;;;;;;13.23;5.22;;;8.80;99.90;;;;;;5072135;28;20435;-71
2023/10/25 04:20:56;;;;;;;13.90;5.50;;;8.90;99.90;;;;;;5072052;28;20375;-71
2023/10/25 04:23:23;;;;;;;11.30;5.50;;;9.00;99.90;;;;;;5071756;28;20522;-71
2023/10/25 04:25:49;;;;;;;9.48;5.70;;;9.00;99.90;;;;;;5071641;28;20386;-72
2023/10/25 04:28:16;;;;;;;10.80;4.93;;;9.00;99.90;;;;;;5071591;28;20387;-71
2023/10/25 04:30:42;;;;;;;10.63;5.25;;;9.00;99.90;;;;;;5071526;28;20383;-70
2023/10/25 04:33:07;;;;;;;9.00;4.90;;;9.00;99.90;;;;;;5071481;28;20453;-71
2023/10/25 04:35:33;;;;;;;9.77;5.97;;;9.10;99.90;;;;;;5071784;28;20911;-71
2023/10/25 04:37:58;;;;;;;12.83;5.20;;;9.10;99.90;;;;;;5073225;28;20379;-71
2023/10/25 04:40:24;;;;;;;8.77;5.13;;;9.10;99.90;;;;;;5075989;28;20390;-71
2023/10/25 04:42:50;;;;;;;14.10;5.40;;;9.00;99.90;;;;;;5074994;28;20407;-71
2023/10/25 04:45:17;;;;;;;10.23;5.33;;;9.00;99.90;;;;;;5077182;28;20402;-72
2023/10/25 04:47:42;;;;;;;13.63;5.45;;;9.00;99.90;;;;;;5076581;28;20466;-71
2023/10/25 04:50:08;;;;;;;12.63;6.20;;;9.10;99.90;;;;;;5073983;28;20420;-71
2023/10/25 04:52:34;;;;;;;14.55;5.97;;;9.20;99.90;;;;;;5071614;28;20396;-72
2023/10/25 04:55:00;;;;;;;8.10;5.30;;;9.20;99.90;;;;;;5071445;28;20383;-71
2023/10/25 04:57:25;;;;;;;11.90;5.95;;;9.20;99.90;;;;;;5071265;28;20412;-71
2023/10/25 04:59:52;;;;;;;12.90;5.90;;;9.20;99.90;;;;;;5071598;28;20889;-72
2023/10/25 05:02:18;;;;;;;14.27;5.30;;;9.20;99.90;;;;;;5072696;28;20388;-72
2023/10/25 05:04:44;;;;;;;15.52;5.85;;;9.40;99.90;;;;;;5073585;28;20943;-71
2023/10/25 05:07:10;;;;;;;10.80;5.60;;;9.30;99.90;;;;;;5071455;28;20896;-71
2023/10/25 05:09:35;;;;;;;10.48;5.30;;;9.30;99.90;;;;;;5071132;28;20399;-71
2023/10/25 05:12:08;;;;;;;11.43;5.67;;;9.20;99.90;;;;;;5071114;28;20380;-72
2023/10/25 05:14:34;;;;;;;9.90;5.05;;;9.20;99.90;;;;;;5072493;28;20410;-72
2023/10/25 05:17:01;;;;;;;13.35;5.00;;;9.20;99.90;;;;;;5071024;28;20818;-71
2023/10/25 05:19:27;;;;;;;11.27;5.38;;;9.20;99.90;;;;;;5071080;28;20465;-72
2023/10/25 05:21:54;;;;;;;10.10;5.10;;;9.20;99.90;;;;;;5070509;28;20376;-72
2023/10/25 05:24:20;;;;;;;12.57;5.30;;;9.10;99.90;;;;;;5070401;28;20391;-71
2023/10/25 05:26:46;;;;;;;14.18;5.50;;;9.10;99.90;;;;;;5070492;28;20766;-70
2023/10/25 05:29:12;;;;;;;9.13;5.32;;;9.10;99.90;;;;;;5071165;28;20384;-71
2023/10/25 05:31:43;;;;;;;12.90;5.55;;;9.00;99.90;;;;;;5070704;28;20395;-72
2023/10/25 05:34:09;;;;;;;7.55;5.93;;;9.00;99.90;;;;;;5053056;28;20391;-71
2023/10/25 05:36:35;;;;;;;14.40;6.13;;;9.10;99.90;;;;;;5070815;28;21004;-72
2023/10/25 05:39:01;;;;;;;14.98;6.50;;;9.00;99.90;;;;;;5070650;28;20435;-72
2023/10/25 05:41:29;;;;;;;13.18;5.95;;;9.10;99.90;;;;;;5069807;28;20747;-70
2023/10/25 05:44:10;;;;;;;13.20;6.75;;;9.10;99.90;;;;;;5070619;28;20475;-71
2023/10/25 05:46:35;;;;;;;14.00;6.40;;;9.10;99.90;;;;;;5070433;28;20383;-71
2023/10/25 05:49:01;;;;;;;15.67;7.10;;;9.10;99.90;;;;;;5070499;28;20386;-73
2023/10/25 05:51:27;;;;;;;13.00;7.10;;;9.20;99.90;;;;;;5070439;28;20470;-71
2023/10/25 05:53:52;;;;;;;11.80;6.20;;;9.30;99.90;;;;;;5070222;28;20372;-72
2023/10/25 05:56:18;;;;;;;10.77;5.55;;;9.30;99.90;;;;;;5069997;28;20383;-72
2023/10/25 05:58:45;;;;;;;14.15;7.10;;;9.20;99.90;;;;;;5070192;28;20415;-71
2023/10/25 06:01:11;;;;;;;12.32;6.80;;;9.20;99.90;;;;;;5070271;28;20384;-72
2023/10/25 06:03:41;;;;;;;8.80;5.93;;;9.10;99.90;;;;;;5070247;28;20581;-72
2023/10/25 06:06:11;;;;;;;9.00;6.20;;;9.10;99.90;;;;;;5069893;28;20383;-71
2023/10/25 06:08:38;;;;;;;13.55;6.40;;;9.10;99.90;;;;;;5070008;28;20386;-74
2023/10/25 06:11:04;;;;;;;7.72;5.85;;;9.20;99.90;;;;;;5070103;28;20691;-71
2023/10/25 06:13:30;;;;;;;13.77;6.35;;;9.10;99.90;;;;;;5069892;28;20398;-72
2023/10/25 06:15:55;;;;;;;14.20;6.20;;;9.20;99.90;;;;;;5073560;28;20398;-71
2023/10/25 06:18:22;;;;;;;9.48;5.80;;;9.20;99.90;;;;;;5073866;28;20395;-72
2023/10/25 06:20:48;;;;;;;15.38;6.40;;;9.20;99.90;;;;;;5074197;28;20383;-72
2023/10/25 06:23:14;;;;;;;15.27;6.07;;;9.20;99.90;;;;;;5075041;28;20371;-71
2023/10/25 06:25:39;;;;;;;12.73;6.40;;;9.20;99.90;;;;;;5074479;28;20928;-73
2023/10/25 06:28:06;;;;;;;17.02;6.85;;;9.20;99.90;;;;;;5074204;28;20376;-72
2023/10/25 06:30:33;;;;;;;16.00;6.07;;;9.20;99.90;;;;;;5074225;28;20379;-72
2023/10/25 06:32:59;;;;;;;12.88;5.88;;;9.30;99.90;;;;;;5073941;28;20890;-71
2023/10/25 06:35:25;;;;;;;14.15;6.30;;;9.30;99.90;;;;;;5074033;28;20426;-71
2023/10/25 06:37:51;;;;;;;11.00;5.90;;;9.40;99.90;;;;;;5073587;28;20383;-72
2023/10/25 06:40:17;;;;;;;16.65;5.32;;;9.40;99.90;;;;;;5073526;28;20388;-72
2023/10/25 06:42:43;;;;;;;11.07;5.45;;;9.50;99.90;;;;;;5073607;28;20384;-72
2023/10/25 06:45:13;;;;;;;16.05;5.57;;;9.60;99.90;;;;;;5074428;28;20380;-71
2023/10/25 06:47:40;;;;;;;16.65;5.20;;;9.70;99.90;;;;;;5075430;28;20386;-71
2023/10/25 06:50:06;;;;;;;12.15;5.25;;;9.70;99.90;;;;;;5074282;28;20905;-72
2023/10/25 06:52:32;;;;;;;11.45;5.60;;;9.70;99.90;;;;;;5073704;28;20758;-71
2023/10/25 06:54:58;;;;;;;10.20;4.80;;;9.80;99.90;;;;;;5074658;28;20376;-71
2023/10/25 06:57:24;;;;;;;12.13;7.27;;;9.90;99.90;;;;;;5072947;28;20905;-71
2023/10/25 06:59:50;;;;;;;16.83;5.50;;;9.90;97.60;;;;;;5072984;28;20435;-72
2023/10/25 07:02:41;;;;;;;12.93;4.93;;;10.10;98.10;;;;;;5072906;28;20413;-71
2023/10/25 07:05:16;;;;;;;13.18;5.22;;;10.10;97.50;;;;;;5066599;28;20481;-72
2023/10/25 07:07:43;;;;;;;9.32;5.70;;;10.10;96.00;;;;;;5052924;28;20439;-71
2023/10/25 07:10:10;;;;;;;9.98;4.80;;;10.10;96.20;;;;;;5057385;28;20457;-71
2023/10/25 07:12:36;;;;;;;6.93;4.00;;;10.20;94.50;;;;;;5055644;28;20756;-70
2023/10/25 07:15:02;;;;;;;9.73;4.50;;;10.30;93.50;;;;;;5050748;28;20472;-71
2023/10/25 07:17:28;;;;;;;12.77;3.95;;;10.30;91.60;;;;;;5051277;28;20397;-71
2023/10/25 07:19:54;;;;;;;6.80;3.35;;;10.40;87.50;;;;;;5058948;28;20457;-70
2023/10/25 07:22:20;;;;;;;6.85;3.70;;;10.50;87.60;;;;;;5071153;28;20862;-72
2023/10/25 07:24:45;;;;;;;12.77;3.90;;;10.50;88.30;;;;;;5070165;28;20376;-71
2023/10/25 07:27:11;;;;;;;4.97;3.00;;;10.60;86.80;;;;;;5070987;28;21224;-71
2023/10/25 07:29:37;;;;;;;12.60;3.80;;;10.70;84.70;;;;;;5068639;28;20407;-71
2023/10/25 07:32:05;;;;;;;10.30;3.70;;;10.80;81.50;;;;;;5069654;28;20526;-71
2023/10/25 07:34:31;;;;;;;10.43;3.20;;;10.80;81.20;;;;;;5070247;28;20401;-70
2023/10/25 07:36:57;;;;;;;8.33;3.30;;;10.80;80.60;;;;;;5069495;28;20391;-71
2023/10/25 07:39:22;;;;;;;9.70;2.60;;;10.80;80.90;;;;;;5070791;28;20494;-71
2023/10/25 07:41:48;;;;;;;6.90;2.70;;;10.90;79.40;;;;;;5070864;28;20391;-70
2023/10/25 07:44:13;;;;;;;4.07;2.20;;;11.00;78.50;;;;;;5070735;28;20852;-71
2023/10/25 07:46:39;;;;;;;12.57;2.40;;;11.00;75.40;;;;;;5069808;28;20396;-70
2023/10/25 07:49:04;;;;;;;8.55;3.10;;;11.10;74.00;;;;;;5073007;28;20388;-71
2023/10/25 07:51:30;;;;;;;5.68;2.35;;;11.10;73.20;;;;;;5071038;28;20900;-72
2023/10/25 07:53:56;;;;;;;9.03;3.93;;;11.20;73.50;;;;;;5070377;28;20445;-71
2023/10/25 07:56:23;;;;;;;4.73;2.30;;;11.20;72.20;;;;;;5071967;28;20689;-70
2023/10/25 07:58:48;;;;;;;9.30;2.70;;;11.30;71.50;;;;;;5074235;28;20407;-72
2023/10/25 08:01:14;;;;;;;9.80;2.60;;;11.30;70.80;;;;;;5072105;28;20400;-71
2023/10/25 08:03:39;;;;;;;5.90;2.30;;;11.40;69.80;;;;;;5073658;28;20383;-72
2023/10/25 08:06:09;;;;;;;4.63;2.53;;;11.50;71.50;;;;;;5071345;28;20882;-71
2023/10/25 08:08:34;;;;;;;10.88;2.67;;;11.60;69.90;;;;;;5071960;28;20399;-72
2023/10/25 08:11:04;;;;;;;5.57;2.25;;;11.70;67.70;;;;;;5070051;28;20399;-70
2023/10/25 08:13:32;;;;;;;5.85;2.10;;;11.80;64.70;;;;;;5069787;28;20808;-72
2023/10/25 08:15:58;;;;;;;7.82;2.22;;;12.00;64.40;;;;;;5070245;28;20407;-71
2023/10/25 08:18:26;;;;;;;8.60;2.50;;;12.20;64.50;;;;;;5065734;28;20407;-71
2023/10/25 08:21:02;;;;;;;8.27;2.22;;;12.30;61.00;;;;;;5064135;28;20403;-75
2023/10/25 08:23:30;;;;;;;5.63;2.20;;;12.30;59.50;;;;;;5068497;28;20435;-72
2023/10/25 08:26:03;;;;;;;10.20;2.70;;;12.50;57.60;;;;;;5067926;28;20402;-71
2023/10/25 08:28:29;;;;;;;5.07;2.50;;;12.60;55.90;;;;;;5048957;28;20462;-73
2023/10/25 08:30:55;;;;;;;4.80;2.50;;;12.80;54.90;;;;;;5055477;28;20379;-70
2023/10/25 08:33:20;;;;;;;7.97;2.50;;;12.90;55.90;;;;;;5069800;28;20964;-71
2023/10/25 08:35:46;;;;;;;5.03;2.30;;;12.90;56.00;;;;;;5063937;28;20391;-72
2023/10/25 08:38:11;;;;;;;6.40;2.95;;;12.90;54.80;;;;;;5072270;28;20757;-73
2023/10/25 08:40:40;;;;;;;7.78;2.33;;;12.90;55.60;;;;;;5075828;28;20706;-72
2023/10/25 08:43:07;;;;;;;4.80;2.15;;;13.10;54.80;;;;;;5070894;28;20379;-72
2023/10/25 08:45:36;;;;;;;4.40;2.40;;;13.30;53.80;;;;;;5069457;28;20391;-71
2023/10/25 08:48:03;;;;;;;6.05;2.05;;;13.50;53.20;;;;;;5068914;28;20431;-73
2023/10/25 08:50:30;;;;;;;6.50;2.27;;;13.50;51.20;;;;;;5069194;28;20417;-70
2023/10/25 08:52:57;;;;;;;4.85;1.90;;;13.50;50.90;;;;;;5068977;28;20376;-70
2023/10/25 08:55:23;;;;;;;6.80;2.50;;;13.60;51.40;;;;;;5068821;28;20484;-72
2023/10/25 08:57:54;;;;;;;6.70;2.60;;;13.50;51.80;;;;;;5068942;28;20406;-72
2023/10/25 09:00:20;;;;;;;3.70;2.00;;;13.40;52.00;;;;;;5068890;28;20392;-72
2023/10/25 09:02:46;;;;;;;6.60;2.20;;;13.40;50.70;;;;;;5068944;28;20396;-72
2023/10/25 09:05:12;;;;;;;4.13;1.83;;;13.30;50.90;;;;;;5068568;28;20426;-73
2023/10/25 09:07:38;;;;;;;7.70;2.50;;;13.40;50.60;;;;;;5069844;28;20423;-70
2023/10/25 09:10:17;;;;;;;6.85;2.30;;;13.30;53.00;;;;;;5068762;28;20380;-70
2023/10/25 09:12:44;;;;;;;5.13;2.20;;;13.20;52.80;;;;;;5069249;28;20758;-71
2023/10/25 09:15:09;;;;;;;7.22;2.13;;;13.10;54.50;;;;;;5067974;28;20415;-70
2023/10/25 09:17:35;;;;;;;8.00;2.57;;;13.00;53.70;;;;;;5069112;28;20425;-70
2023/10/25 09:20:01;;;;;;;9.10;2.30;;;13.00;55.30;;;;;;5068929;28;20469;-70
2023/10/25 09:22:30;;;;;;;6.10;2.07;;;12.90;55.90;;;;;;5069079;28;20867;-72
2023/10/25 09:25:01;;;;;;;5.78;2.00;;;13.00;56.50;;;;;;5069122;28;20921;-71
2023/10/25 09:27:28;;;;;;;4.15;2.22;;;13.00;56.70;;;;;;5070190;28;20387;-71
2023/10/25 09:29:55;;;;;;;4.10;1.80;;;12.90;59.20;;;;;;5068281;28;20388;-71
2023/10/25 09:32:21;;;;;;;3.78;2.28;;;12.80;59.90;;;;;;5082360;23;20460;-75
2023/10/25 09:34:48;;;;;;;3.65;1.73;;;12.80;60.60;;;;;;5066926;28;20685;-75
2023/10/25 09:37:14;;;;;;;11.10;1.95;;;12.90;59.10;;;;;;5068534;28;20414;-74
2023/10/25 09:39:40;;;;;;;6.50;2.00;;;12.80;60.80;;;;;;5068694;28;20516;-77
2023/10/25 09:42:09;;;;;;;6.65;2.53;;;12.90;60.70;;;;;;5061262;28;20405;-75
2023/10/25 09:44:51;;;;;;;5.32;1.90;;;12.80;62.90;;;;;;5063421;28;20758;-75
2023/10/25 09:47:18;;;;;;;7.97;2.15;;;12.90;62.00;;;;;;5052438;28;20384;-76
2023/10/25 09:49:48;;;;;;;3.17;1.77;;;12.90;60.90;;;;;;5068785;28;20451;-76
2023/10/25 09:52:25;;;;;;;6.05;1.80;;;13.00;61.30;;;;;;5070591;28;20388;-75
2023/10/25 09:54:52;;;;;;;6.03;3.00;;;12.90;63.40;;;;;;5070829;28;20383;-75
2023/10/25 09:57:19;;;;;;;5.05;2.80;;;12.80;64.40;;;;;;5070778;28;20379;-75
2023/10/25 09:59:45;;;;;;;6.10;2.63;;;12.80;63.30;;;;;;5069774;28;20404;-74
2023/10/25 10:02:36;;;;;;;5.75;2.58;;;12.80;64.40;;;;;;5069853;28;20747;-74
2023/10/25 10:05:09;;;;;;;7.03;2.50;;;12.90;63.60;;;;;;5070421;28;20427;-74
2023/10/25 10:07:49;;;;;;;8.52;3.03;;;13.00;61.60;;;;;;5070422;28;20386;-75
2023/10/25 10:10:31;;;;;;;3.50;1.80;;;13.10;60.90;;;;;;5070204;28;20850;-75
2023/10/25 10:12:57;;;;;;;6.20;2.60;;;13.10;58.60;;;;;;5070641;28;20380;-74
2023/10/25 10:16:01;;;;;;;6.70;3.00;;;13.10;59.40;;;;;;5069321;28;20379;-75
2023/10/25 10:18:37;;;;;;;7.75;2.60;;;13.20;58.20;;;;;;5070470;28;20911;-74
2023/10/25 10:21:05;;;;;;;5.90;2.50;;;13.30;58.10;;;;;;5070539;28;20415;-75
2023/10/25 10:23:34;;;;;;;8.73;3.97;;;13.50;55.30;;;;;;5070565;28;20395;-75
2023/10/25 10:26:01;;;;;;;4.53;2.03;;;13.40;56.60;;;;;;5072822;28;20387;-76
2023/10/25 10:28:43;;;;;;;4.80;2.90;;;13.50;56.50;;;;;;5070108;28;20981;-76
2023/10/25 10:31:11;;;;;;;3.90;2.67;;;13.40;56.30;;;;;;5070496;28;20909;-75
2023/10/25 10:33:49;;;;;;;6.85;2.95;;;13.40;56.70;;;;;;5070038;28;20403;-77
2023/10/25 10:36:26;;;;;;;8.82;2.35;;;13.30;57.10;;;;;;5069651;28;20391;-75
2023/10/25 10:39:10;;;;;;;3.90;2.20;;;13.20;59.10;;;;;;5071095;28;20474;-76
2023/10/25 10:41:36;;;;;;;6.68;2.40;;;13.30;59.70;;;;;;5072846;28;20742;-76
2023/10/25 10:44:01;;;;;;;4.93;2.90;;;13.20;60.20;;;;;;5071256;28;20394;-75
2023/10/25 10:46:30;;;;;;;5.47;3.50;;;13.10;61.40;;;;;;5070044;28;20425;-75
2023/10/25 10:49:00;;;;;;;6.50;3.00;;;13.20;61.10;;;;;;5070616;28;20429;-75
2023/10/25 10:51:27;;;;;;;6.57;3.70;;;13.10;62.30;;;;;;5071008;28;20387;-76
2023/10/25 10:53:53;;;;;;;6.23;3.60;;;13.10;63.50;;;;;;5071023;28;20449;-76
2023/10/25 10:56:19;;;;;;;4.75;3.10;;;13.00;63.80;;;;;;5071093;28;20395;-76
2023/10/25 10:58:45;;;;;;;5.50;3.20;;;12.90;66.90;;;;;;5070984;28;20774;-76
2023/10/25 11:01:11;;;;;;;4.97;3.20;;;12.80;67.20;;;;;;5071507;28;20380;-77
2023/10/25 11:03:39;;;;;;;5.38;3.45;;;12.80;70.10;;;;;;5073779;28;20388;-76
2023/10/25 11:06:05;;;;;;;8.68;3.97;;;12.70;72.60;;;;;;5073892;28;20395;-76
2023/10/25 11:08:35;;;;;;;7.30;3.93;;;12.70;72.90;;;;;;5073993;28;20383;-76
2023/10/25 11:11:01;;;;;;;5.15;3.28;;;12.70;72.30;;;;;;5072264;28;20967;-76
2023/10/25 11:13:28;;;;;;;5.35;4.18;;;12.60;74.10;;;;;;5073380;28;20379;-77
2023/10/25 11:16:06;;;;;;;8.93;3.83;;;12.70;73.50;;;;;;5073546;28;20391;-74
2023/10/25 11:18:32;;;;;;;5.97;4.20;;;12.60;74.20;;;;;;5073668;28;20399;-75
2023/10/25 11:21:00;;;;;;;9.30;3.73;;;12.60;75.40;;;;;;5073420;28;20880;-75
2023/10/25 11:23:25;;;;;;;7.53;3.60;;;12.70;73.90;;;;;;5073268;28;20380;-77
2023/10/25 11:25:51;;;;;;;5.53;4.00;;;12.70;75.40;;;;;;5073910;28;20441;-74
2023/10/25 11:28:20;;;;;;;6.90;4.93;;;12.60;77.40;;;;;;5074461;28;20876;-76
2023/10/25 11:30:48;;;;;;;5.85;3.20;;;12.60;77.70;;;;;;5072403;28;20475;-77
2023/10/25 11:33:15;;;;;;;8.10;3.90;;;12.60;77.40;;;;;;5073805;28;20424;-76
2023/10/25 11:35:42;;;;;;;4.50;3.43;;;12.60;77.50;;;;;;5073893;28;20383;-75
2023/10/25 11:38:09;;;;;;;4.05;3.50;;;12.70;74.80;;;;;;5074744;28;20407;-77
2023/10/25 11:40:46;;;;;;;6.32;3.60;;;12.60;78.20;;;;;;5073534;28;20501;-76
2023/10/25 11:43:12;;;;;;;4.93;3.60;;;12.50;77.50;;;;;;5071563;28;20437;-77
2023/10/25 11:45:39;;;;;;;6.43;3.80;;;12.50;80.80;;;;;;5072865;28;20439;-76
2023/10/25 11:48:05;;;;;;;7.90;3.80;;;12.40;80.50;;;;;;5072749;28;20379;-76
2023/10/25 11:50:31;;;;;;;7.53;3.70;;;12.40;81.40;;;;;;5071502;28;20438;-76
2023/10/25 11:53:00;;;;;;;5.35;3.78;;;12.40;84.50;;;;;;5070971;28;20928;-75
2023/10/25 11:55:27;;;;;;;6.20;3.80;;;12.40;82.50;;;;;;5071593;28;20383;-76
2023/10/25 11:57:53;;;;;;;8.30;4.35;;;12.40;84.10;;;;;;5073436;28;20422;-75
2023/10/25 12:00:19;;;;;;;4.97;3.50;;;12.50;82.20;;;;;;5073741;28;20459;-75
2023/10/25 12:02:45;;;;;;;7.13;3.90;;;12.50;80.40;;;;;;5073155;28;20462;-74
2023/10/25 12:05:11;;;;;;;7.78;4.10;;;12.50;80.40;;;;;;5072519;28;20379;-74
2023/10/25 12:07:37;;;;;;;5.40;3.90;;;12.50;81.90;;;;;;5072300;28;20772;-77
2023/10/25 12:10:04;;;;;;;8.27;4.05;;;12.50;80.90;;;;;;5073543;28;20415;-76
2023/10/25 12:12:30;;;;;;;6.10;4.30;;;12.50;80.60;;;;;;5071864;28;20468;-75
2023/10/25 12:14:56;;;;;;;8.02;4.13;;;12.40;81.50;;;;;;5072754;28;20889;-76
2023/10/25 12:17:22;;;;;;;6.35;4.80;;;12.50;81.60;;;;;;5073560;28;20546;-76
2023/10/25 12:19:50;;;;;;;5.88;4.30;;;12.50;81.20;;;;;;5072631;28;20431;-77
2023/10/25 12:22:15;;;;;;;5.40;4.00;;;12.60;79.80;;;;;;5070729;28;20398;-76
2023/10/25 12:24:43;;;;;;;8.53;4.27;;;12.50;81.10;;;;;;5068030;28;20472;-75
2023/10/25 12:27:09;;;;;;;5.35;4.10;;;12.50;81.10;;;;;;5064412;28;20394;-77
2023/10/25 12:29:35;;;;;;;6.95;4.85;;;12.40;81.40;;;;;;5072717;28;20757;-75
2023/10/25 12:32:03;;;;;;;7.93;4.50;;;12.40;83.40;;;;;;5061249;28;20453;-74
2023/10/25 12:34:28;;;;;;;6.50;4.70;;;12.40;85.00;;;;;;5051233;28;20397;-75
2023/10/25 12:36:54;;;;;;;5.97;4.17;;;12.40;84.30;;;;;;5052610;28;20386;-73
2023/10/25 12:39:19;;;;;;;7.53;4.37;;;12.50;82.70;;;;;;5071246;28;20411;-74
2023/10/25 12:41:45;;;;;;;6.63;4.35;;;12.50;80.40;;;;;;5069737;28;20462;-74
2023/10/25 12:44:12;;;;;;;6.78;3.97;;;12.50;81.80;;;;;;5070560;28;20413;-76
2023/10/25 12:46:44;;;;;;;8.90;4.30;;;12.50;81.70;;;;;;5071603;28;20388;-75